Latest Coastal Weather Observations for Noarlunga

IDS60701

Issued at 6:51 am CST Friday 20 April 2018 (issued every 10 minutes, with the page automatically refreshed every 10 minutes)

About coastal observations | Map of coastal stations | Coastal observations for SA | Marine services | Other Formats
Station Details ID: 023885 Name: NOARLUNGA Lat: -35.16 Lon: 138.51 Height: 55.0 m
Data from the previous 72 hours. | See also: Recent months at Noarlunga
Date/Time
CST
Temp
°C
Wind Pressure Rain since
9am
mm
Weather Cloud Vis
km
Sea
Height
m
Swell
Dir  Spd
kts
Gust
kts
hPa Trend Height
m
Period
s
Dir
20/06:30am 23.6 NE 8 11 - - 0.0 - - - - - - -
20/06:00am 23.2 NE 8 11 - - 0.0 - - - - - - -
20/05:30am 23.4 NE 8 10 - - 0.0 - - - - - - -
20/05:00am 23.7 NNE 7 10 - - 0.0 - - - - - - -
20/04:30am 23.8 NNE 8 13 - - 0.0 - - - - - - -
20/04:00am 23.6 NNE 7 10 - - 0.0 - - - - - - -
20/03:30am 23.0 NE 8 11 - - 0.0 - - - - - - -
20/03:00am 22.9 NE 6 8 - - 0.0 - - - - - - -
20/02:30am 20.9 ENE 4 5 - - 0.0 - - - - - - -
20/02:00am 21.5 ENE 3 4 - - 0.0 - - - - - - -
20/01:30am 23.8 ENE 7 10 - - 0.0 - - - - - - -
20/01:00am 24.2 ENE 7 11 - - 0.0 - - - - - - -
20/12:30am 24.2 ENE 8 12 - - 0.0 - - - - - - -
20/12:00am 24.1 ENE 8 12 - - 0.0 - - - - - - -
 
Date/Time
CST
Temp
°C
Wind Pressure Rain since
9am
mm
Weather Cloud Vis
km
Sea
Height
m
Swell
Dir  Spd
kts
Gust
kts
hPa Trend Height
m
Period
s
Dir
19/11:30pm 24.0 ENE 8 13 - - 0.0 - - - - - - -
19/11:00pm 24.0 ENE 8 13 - - 0.0 - - - - - - -
19/10:30pm 23.9 ENE 8 11 - - 0.0 - - - - - - -
19/10:00pm 24.1 ENE 9 13 - - 0.0 - - - - - - -
19/09:30pm 24.2 ENE 9 13 - - 0.0 - - - - - - -
19/09:00pm 24.0 ENE 8 11 - - 0.0 - - - - - - -
19/08:30pm 23.9 ENE 8 11 - - 0.0 - - - - - - -
19/08:00pm 23.4 ENE 8 11 - - 0.0 - - - - - - -
19/07:30pm 24.0 ENE 7 11 - - 0.0 - - - - - - -
19/07:00pm 24.1 E 7 10 - - 0.0 - - - - - - -
19/06:30pm 25.1 E 5 7 - - 0.0 - - - - - - -
19/06:00pm 25.8 E 3 4 - - 0.0 - - - - - - -
19/05:30pm 28.1 CALM 0 0 - - 0.0 - - - - - - -
19/05:00pm 28.5 W 1 2 - - 0.0 - - - - - - -
19/04:30pm 28.5 W 2 4 - - 0.0 - - - - - - -
19/04:00pm 28.5 WNW 3 5 - - 0.0 - - - - - - -
19/03:30pm 29.0 WNW 3 5 - - 0.0 - - - - - - -
19/03:00pm 29.1 WNW 2 3 - - 0.0 - - - - - - -
19/02:30pm 28.1 NW 3 5 - - 0.0 - - - - - - -
19/02:00pm 27.8 NW 4 6 - - 0.0 - - - - - - -
19/01:30pm 27.7 NNW 4 6 - - 0.0 - - - - - - -
19/01:00pm 27.2 NNW 6 9 - - 0.0 - - - - - - -
19/12:30pm 26.7 N 7 11 - - 0.0 - - - - - - -
19/12:00pm 26.1 NNW 8 13 - - 0.0 - - - - - - -
19/11:30am 26.3 N 8 13 - - 0.0 - - - - - - -
19/11:00am 25.9 N 8 13 - - 0.0 - - - - - - -
19/10:30am 25.6 N 10 17 - - 0.0 - - - - - - -
19/10:00am 24.9 NNW 9 13 - - 0.0 - - - - - - -
19/09:30am 24.5 N 8 10 - - 0.0 - - - - - - -
19/09:00am 23.3 N 7 11 - - 0.0 - - - - - - -
19/08:30am 22.2 NNE 4 7 - - 0.0 - - - - - - -
19/08:00am 20.7 NNE 5 6 - - 0.0 - - - - - - -
19/07:30am 19.1 NNE 4 6 - - 0.0 - - - - - - -
19/07:00am 16.9 NE 2 4 - - 0.0 - - - - - - -
19/06:30am 16.9 NE 1 2 - - 0.0 - - - - - - -
19/06:00am 16.7 NE 2 3 - - 0.0 - - - - - - -
19/05:30am 16.7 NE 3 5 - - 0.0 - - - - - - -
19/05:00am 17.1 NE 3 4 - - 0.0 - - - - - - -
19/04:30am 16.9 ENE 4 5 - - 0.0 - - - - - - -
19/04:00am 16.2 NE 3 5 - - 0.0 - - - - - - -
19/03:30am 16.7 NE 3 4 - - 0.0 - - - - - - -
19/03:00am 18.2 ENE 3 5 - - 0.0 - - - - - - -
19/02:30am 17.7 ENE 3 4 - - 0.0 - - - - - - -
19/02:00am 17.4 ENE 2 4 - - 0.0 - - - - - - -
19/01:30am 17.6 ENE 4 5 - - 0.0 - - - - - - -
19/01:00am 18.2 ENE 4 6 - - 0.0 - - - - - - -
19/12:30am 17.9 NE 4 6 - - 0.0 - - - - - - -
19/12:00am 17.9 ENE 5 6 - - 0.0 - - - - - - -
 
Date/Time
CST
Temp
°C
Wind Pressure Rain since
9am
mm
Weather Cloud Vis
km
Sea
Height
m
Swell
Dir  Spd
kts
Gust
kts
hPa Trend Height
m
Period
s
Dir
18/11:30pm 17.4 ENE 3 4 - - 0.0 - - - - - - -
18/11:00pm 17.7 ENE 1 3 - - 0.0 - - - - - - -
18/10:30pm 17.6 ENE 3 4 - - 0.0 - - - - - - -
18/10:00pm 17.7 ENE 1 2 - - 0.0 - - - - - - -
18/09:30pm 18.4 ENE 2 2 - - 0.0 - - - - - - -
18/09:00pm 18.6 E 1 2 - - 0.0 - - - - - - -
18/08:30pm 19.0 E 2 3 - - 0.0 - - - - - - -
18/08:00pm 19.3 ESE 4 5 - - 0.0 - - - - - - -
18/07:30pm 19.6 ESE 4 5 - - 0.0 - - - - - - -
18/07:00pm 19.9 SW 2 2 - - 0.0 - - - - - - -
18/06:30pm 20.6 CALM 0 0 - - 0.0 - - - - - - -
18/06:00pm 21.3 SW 1 2 - - 0.0 - - - - - - -
18/05:30pm 22.0 SW 2 3 - - 0.0 - - - - - - -
18/05:00pm 23.3 W 2 3 - - 0.0 - - - - - - -
18/04:30pm 24.1 W 4 6 - - 0.0 - - - - - - -
18/04:00pm 24.8 NW 5 8 - - 0.0 - - - - - - -
18/03:30pm 25.4 NNW 5 9 - - 0.0 - - - - - - -
18/03:00pm 24.1 N 3 5 - - 0.0 - - - - - - -
18/02:30pm 23.4 N 4 7 - - 0.0 - - - - - - -
18/02:00pm 23.4 N 7 9 - - 0.0 - - - - - - -
18/01:30pm 24.4 NNW 10 13 - - 0.0 - - - - - - -
18/01:00pm 25.0 NNW 8 13 - - 0.0 - - - - - - -
18/12:30pm 24.0 N 9 14 - - 0.0 - - - - - - -
18/12:00pm 23.9 N 10 14 - - 0.0 - - - - - - -
18/11:30am 22.7 N 10 15 - - 0.0 - - - - - - -
18/11:00am 22.4 N 10 16 - - 0.0 - - - - - - -
18/10:30am 22.6 N 8 13 - - 0.0 - - - - - - -
18/10:00am 22.1 N 6 11 - - 0.0 - - - - - - -
18/09:30am 20.8 NE 3 6 - - 0.0 - - - - - - -
18/09:00am 19.2 NE 4 6 - - 0.0 - - - - - - -
18/08:30am 16.1 E 2 3 - - 0.0 - - - - - - -
18/08:00am 14.9 CALM 0 0 - - 0.0 - - - - - - -
18/07:30am 14.3 CALM 0 1 - - 0.0 - - - - - - -
18/07:00am 12.5 E 1 2 - - 0.0 - - - - - - -
18/06:30am 12.4 CALM 0 0 - - 0.0 - - - - - - -
18/06:00am 12.5 CALM 0 0 - - 0.0 - - - - - - -
18/05:30am 13.5 ENE 1 3 - - 0.0 - - - - - - -
18/05:00am 14.3 ENE 6 9 - - 0.0 - - - - - - -
18/04:30am 14.4 ENE 8 11 - - 0.0 - - - - - - -
18/04:00am 14.7 E 8 11 - - 0.0 - - - - - - -
18/03:30am 14.7 ENE 9 13 - - 0.0 - - - - - - -
18/03:00am 14.8 ENE 9 13 - - 0.0 - - - - - - -
18/02:30am 14.6 ENE 9 15 - - 0.0 - - - - - - -
18/02:00am 14.3 E 10 15 - - 0.0 - - - - - - -
18/01:30am 14.2 E 10 18 - - 0.0 - - - - - - -
18/01:00am 14.1 E 10 17 - - 0.0 - - - - - - -
18/12:30am 13.9 E 11 17 - - 0.0 - - - - - - -
18/12:00am 14.0 E 11 18 - - 0.0 - - - - - - -
 
Date/Time
CST
Temp
°C
Wind Pressure Rain since
9am
mm
Weather Cloud Vis
km
Sea
Height
m
Swell
Dir  Spd
kts
Gust
kts
hPa Trend Height
m
Period
s
Dir
17/11:30pm 13.7 E 11 18 - - 0.0 - - - - - - -
17/11:00pm 13.6 ESE 10 14 - - 0.0 - - - - - - -
17/10:30pm 13.6 ESE 10 17 - - 0.0 - - - - - - -
17/10:00pm 13.6 ESE 9 13 - - 0.0 - - - - - - -
17/09:30pm 13.8 ESE 11 15 - - 0.0 - - - - - - -
17/09:00pm 13.9 ESE 11 17 - - 0.0 - - - - - - -
17/08:30pm 13.8 ESE 12 17 - - 0.0 - - - - - - -
17/08:00pm 13.9 ESE 11 16 - - 0.0 - - - - - - -
17/07:30pm 14.1 ESE 8 13 - - 0.0 - - - - - - -
17/07:00pm 14.5 ESE 9 13 - - 0.0 - - - - - - -
17/06:30pm 15.1 SE 12 17 - - 0.0 - - - - - - -
17/06:00pm 16.6 ESE 7 10 - - 0.0 - - - - - - -
17/05:30pm 17.5 SE 7 10 - - 0.0 - - - - - - -
17/05:00pm 18.2 SE 5 10 - - 0.0 - - - - - - -
17/04:30pm 18.6 NW 8 13 - - 0.0 - - - - - - -
17/04:00pm 20.1 W 6 11 - - 0.0 - - - - - - -
17/03:30pm 20.4 SSE 5 8 - - 0.0 - - - - - - -
17/03:00pm 20.9 NE 4 8 - - 0.0 - - - - - - -
17/02:30pm 20.5 E 4 8 - - 0.0 - - - - - - -
17/02:00pm 19.6 ESE 6 10 - - 0.0 - - - - - - -
17/01:30pm 19.5 ENE 4 9 - - 0.0 - - - - - - -
17/01:00pm 19.1 ESE 8 14 - - 0.0 - - - - - - -
17/12:30pm 18.6 E 7 12 - - 0.0 - - - - - - -
17/12:00pm 18.1 ESE 8 13 - - 0.0 - - - - - - -
17/11:30am 18.2 ESE 8 13 - - 0.0 - - - - - - -
17/11:00am 17.7 ESE 6 11 - - 0.0 - - - - - - -
17/10:30am 17.1 ESE 9 13 - - 0.0 - - - - - - -
17/10:00am 16.6 ESE 7 11 - - 0.0 - - - - - - -
17/09:30am 16.2 E 10 14 - - 0.0 - - - - - - -
17/09:00am 15.8 E 9 14 - - 0.0 - - - - - - -
17/08:30am 15.4 ENE 6 10 - - 0.0 - - - - - - -
17/08:00am 14.9 E 7 11 - - 0.0 - - - - - - -
17/07:30am 14.0 E 5 7 - - 0.0 - - - - - - -
17/07:00am 12.5 SE 2 3 - - 0.0 - - - - - - -

Other Formats:

Comma delimited format used in spreadsheet applications
http://www.bom.gov.au/fwo/IDS60701/IDS60701.94808.axf

JavaScript Object Notation format (JSON) in row-major order
http://www.bom.gov.au/fwo/IDS60701/IDS60701.94808.json